Time;durP1;ratioP1;P1;durP2;ratioP2;P2;SDS_P1;SDS_P2;PMS_P1;PMS_P2;Temp;Humidity;BMP_temperature;BMP_pressure;BME280_temperature;BME280_humidity;BME280_pressure;Samples;Min_cycle;Max_cycle;Signal;HPM_P1;HPM_P2
2021/10/12 00:01:24;;;;;;;24.10;10.20;;;;;;;9.62;100.00;101160.49;1597553;88;21961;-85
2021/10/12 00:03:50;;;;;;;26.25;10.03;;;;;;;9.58;100.00;101159.31;1597434;89;20903;-85
2021/10/12 00:06:18;;;;;;;26.85;10.48;;;;;;;9.54;100.00;101155.48;1597612;89;21039;-85
2021/10/12 00:08:44;;;;;;;27.77;10.70;;;;;;;9.48;100.00;101163.98;1597489;89;21086;-84
2021/10/12 00:11:10;;;;;;;26.77;10.32;;;;;;;9.45;100.00;101152.88;1597373;89;21022;-84
2021/10/12 00:13:35;;;;;;;27.73;10.55;;;;;;;9.42;100.00;101156.86;1597503;88;21178;-84
2021/10/12 00:16:02;;;;;;;27.67;10.55;;;;;;;9.40;100.00;101154.11;1597528;89;20915;-84
2021/10/12 00:18:28;;;;;;;25.80;10.05;;;;;;;9.37;100.00;101151.91;1597566;89;20995;-84
2021/10/12 00:20:54;;;;;;;31.10;10.45;;;;;;;9.35;100.00;101150.78;1597421;89;20989;-83
2021/10/12 00:23:20;;;;;;;29.27;11.48;;;;;;;9.35;100.00;101152.13;1597286;89;20884;-84
2021/10/12 00:25:46;;;;;;;29.32;11.10;;;;;;;9.30;100.00;101148.82;1597275;88;21121;-84
2021/10/12 00:28:12;;;;;;;29.67;10.72;;;;;;;9.26;100.00;101145.48;1597302;89;21430;-84
2021/10/12 00:30:38;;;;;;;28.65;10.70;;;;;;;9.22;100.00;101144.34;1597405;89;20891;-84
2021/10/12 00:33:05;;;;;;;23.60;10.40;;;;;;;9.21;100.00;101144.05;1597453;89;21070;-84
2021/10/12 00:35:30;;;;;;;34.53;11.53;;;;;;;9.20;100.00;101142.41;1597426;89;21115;-84
2021/10/12 00:37:56;;;;;;;29.42;11.12;;;;;;;9.19;100.00;101135.40;1597841;89;21723;-84
2021/10/12 00:40:22;;;;;;;27.30;10.15;;;;;;;9.16;100.00;101141.25;1597326;88;20978;-84
2021/10/12 00:42:48;;;;;;;27.65;11.18;;;;;;;9.14;100.00;101137.97;1597266;89;21630;-84
2021/10/12 00:45:15;;;;;;;29.25;11.35;;;;;;;9.13;100.00;101135.00;1597434;89;20881;-84
2021/10/12 00:48:00;;;;;;;30.00;11.33;;;;;;;9.11;100.00;101135.23;1597458;89;21033;-84
2021/10/12 00:50:28;;;;;;;25.95;10.95;;;;;;;9.06;100.00;101131.11;1621235;86;21188;-84
2021/10/12 00:52:54;;;;;;;23.92;10.70;;;;;;;9.03;100.00;101135.58;1635767;86;22553;-84
2021/10/12 00:55:20;;;;;;;26.65;11.15;;;;;;;9.01;100.00;101138.52;1636073;86;21129;-83
2021/10/12 00:57:46;;;;;;;37.58;11.75;;;;;;;9.01;100.00;101136.37;1635975;86;21061;-83
2021/10/12 01:00:12;;;;;;;27.75;10.30;;;;;;;8.98;100.00;101135.50;1635979;86;20938;-84
2021/10/12 01:02:38;;;;;;;24.82;10.63;;;;;;;8.93;100.00;101139.41;1635863;86;21077;-84
2021/10/12 01:05:07;;;;;;;28.95;11.50;;;;;;;8.87;100.00;101137.12;1636091;86;21570;-84
2021/10/12 01:07:33;;;;;;;30.43;11.83;;;;;;;8.82;100.00;101137.85;1635832;86;21530;-84
2021/10/12 01:09:59;;;;;;;28.15;11.70;;;;;;;8.80;100.00;101131.89;1636115;86;21073;-84
2021/10/12 01:12:25;;;;;;;27.50;11.33;;;;;;;8.80;100.00;101126.52;1636010;86;20903;-84
2021/10/12 01:14:51;;;;;;;30.35;11.83;;;;;;;8.80;100.00;101124.36;1635976;86;21880;-84
2021/10/12 01:17:17;;;;;;;30.48;11.48;;;;;;;8.79;100.00;101124.05;1635903;86;20997;-84
2021/10/12 01:19:48;;;;;;;27.45;11.63;;;;;;;8.75;100.00;101116.98;1636096;86;20927;-84
2021/10/12 01:22:14;;;;;;;28.15;11.18;;;;;;;8.72;100.00;101115.30;1635718;86;21090;-85
2021/10/12 01:24:40;;;;;;;28.42;11.70;;;;;;;8.70;100.00;101112.02;1634461;86;21772;-84
2021/10/12 01:27:06;;;;;;;27.48;10.55;;;;;;;8.69;100.00;101110.39;1634239;86;21053;-83
2021/10/12 01:29:32;;;;;;;31.70;12.05;;;;;;;8.66;100.00;101113.55;1634075;86;20982;-83
2021/10/12 01:31:59;;;;;;;27.22;11.10;;;;;;;8.61;100.00;101109.67;1634125;86;21083;-83
2021/10/12 01:34:25;;;;;;;26.57;11.78;;;;;;;8.60;100.00;101113.95;1633967;86;21541;-83
2021/10/12 01:36:51;;;;;;;28.62;11.75;;;;;;;8.58;100.00;101109.33;1633934;86;21081;-83
2021/10/12 01:39:19;;;;;;;32.00;11.60;;;;;;;8.55;100.00;101115.17;1634066;86;21072;-83
2021/10/12 01:41:45;;;;;;;31.62;11.65;;;;;;;8.50;100.00;101113.70;1633981;86;20931;-83
2021/10/12 01:44:15;;;;;;;31.45;11.18;;;;;;;8.51;100.00;101113.48;1634147;87;21011;-83
2021/10/12 01:46:41;;;;;;;27.22;11.75;;;;;;;8.52;100.00;101112.95;1626776;87;20982;-83
2021/10/12 01:49:08;;;;;;;26.65;11.60;;;;;;;8.52;100.00;101110.27;1633781;86;21010;-83
2021/10/12 01:51:36;;;;;;;27.87;11.43;;;;;;;8.52;100.00;101111.08;1634289;87;21105;-83
2021/10/12 01:54:04;;;;;;;29.55;12.05;;;;;;;8.50;100.00;101102.46;1634053;86;21646;-83
2021/10/12 01:56:30;;;;;;;32.42;12.13;;;;;;;8.50;100.00;101102.95;1634026;86;21198;-84
2021/10/12 01:58:56;;;;;;;27.00;11.12;;;;;;;8.46;100.00;101097.24;1634153;86;21523;-83
2021/10/12 02:01:24;;;;;;;27.87;11.90;;;;;;;8.46;100.00;101105.83;1634288;86;20966;-83
2021/10/12 02:03:51;;;;;;;39.73;12.58;;;;;;;8.47;100.00;101102.92;1633993;86;21116;-83
2021/10/12 02:06:17;;;;;;;27.58;11.93;;;;;;;8.46;100.00;101099.12;1634167;86;21009;-83
2021/10/12 02:08:44;;;;;;;28.62;12.68;;;;;;;8.48;100.00;101091.66;1634255;86;21561;-83
2021/10/12 02:11:10;;;;;;;29.40;11.63;;;;;;;8.47;100.00;101093.53;1634082;86;21002;-83
2021/10/12 02:13:36;;;;;;;28.67;11.63;;;;;;;8.46;100.00;101093.75;1634097;86;21057;-83
2021/10/12 02:16:03;;;;;;;36.03;13.05;;;;;;;8.43;100.00;101093.69;1634382;87;21134;-83
2021/10/12 02:18:29;;;;;;;25.60;11.78;;;;;;;8.39;100.00;101096.02;1633861;86;21006;-83
2021/10/12 02:20:55;;;;;;;30.88;12.68;;;;;;;8.36;100.00;101093.77;1634224;86;20998;-83
2021/10/12 02:23:21;;;;;;;32.13;13.20;;;;;;;8.31;100.00;101094.98;1634530;86;20895;-83
2021/10/12 02:25:47;;;;;;;28.98;12.33;;;;;;;8.30;100.00;101088.52;1638669;87;20919;-83
2021/10/12 02:28:13;;;;;;;27.75;12.53;;;;;;;8.27;100.00;101088.45;1638488;87;21934;-82
2021/10/12 02:30:38;;;;;;;36.15;13.78;;;;;;;8.24;100.00;101086.77;1638701;87;20871;-83
2021/10/12 02:33:04;;;;;;;40.78;14.30;;;;;;;8.16;100.00;101082.02;1638294;87;20906;-83
2021/10/12 02:35:30;;;;;;;40.75;14.73;;;;;;;8.09;100.00;101084.00;1638597;87;20972;-83
2021/10/12 02:37:56;;;;;;;44.63;15.83;;;;;;;8.02;100.00;101077.91;1638610;87;21546;-83
2021/10/12 02:40:23;;;;;;;36.40;15.03;;;;;;;7.97;100.00;101075.09;1638654;87;21168;-83
2021/10/12 02:42:49;;;;;;;43.60;16.82;;;;;;;7.91;100.00;101074.66;1638513;87;21054;-83
2021/10/12 02:45:15;;;;;;;37.20;15.43;;;;;;;7.83;100.00;101069.12;1636391;87;21029;-83
2021/10/12 02:47:41;;;;;;;37.33;14.60;;;;;;;7.79;100.00;101067.93;1638318;87;20973;-84
2021/10/12 02:50:10;;;;;;;41.90;14.65;;;;;;;7.71;100.00;101061.05;1638812;87;21190;-84
2021/10/12 02:52:35;;;;;;;36.05;13.03;;;;;;;7.71;100.00;101061.05;1638751;87;21246;-84
2021/10/12 02:55:03;;;;;;;34.63;13.88;;;;;;;7.66;100.00;101062.78;1638529;87;20984;-83
2021/10/12 02:57:32;;;;;;;42.98;15.10;;;;;;;7.62;100.00;101064.30;1638552;87;21477;-83
2021/10/12 02:59:59;;;;;;;33.38;13.88;;;;;;;7.59;100.00;101058.02;1638198;87;21688;-84
2021/10/12 03:02:24;;;;;;;36.75;13.65;;;;;;;7.55;100.00;101063.02;1638768;87;21589;-83
2021/10/12 03:04:50;;;;;;;39.13;14.25;;;;;;;7.55;100.00;101051.48;1638668;87;21077;-82
2021/10/12 03:07:17;;;;;;;35.23;13.95;;;;;;;7.53;100.00;101051.73;1638267;87;20918;-83
2021/10/12 03:09:43;;;;;;;39.13;13.10;;;;;;;7.52;100.00;101047.39;1638569;87;21022;-83
2021/10/12 03:12:09;;;;;;;36.38;13.20;;;;;;;7.48;100.00;101048.91;1638351;87;21029;-83
2021/10/12 03:14:40;;;;;;;34.53;12.95;;;;;;;7.40;100.00;101046.53;1638308;87;21013;-83
2021/10/12 03:17:06;;;;;;;34.65;13.10;;;;;;;7.28;100.00;101048.64;1638555;87;22009;-83
2021/10/12 03:19:32;;;;;;;35.50;13.53;;;;;;;7.25;100.00;101050.44;1638346;87;21467;-82
2021/10/12 03:22:09;;;;;;;31.37;14.15;;;;;;;7.22;100.00;101046.05;1638557;87;20883;-83
2021/10/12 03:24:28;;;;;;;34.73;13.98;;;;;;;7.18;100.00;101034.98;1636513;87;21039;-83
2021/10/12 03:26:54;;;;;;;33.83;13.50;;;;;;;7.11;100.00;101036.09;1636186;86;20923;-83
2021/10/12 03:29:20;;;;;;;34.67;12.50;;;;;;;7.06;100.00;101038.13;1635829;86;21119;-83
2021/10/12 03:31:46;;;;;;;41.83;14.38;;;;;;;7.07;100.00;101033.05;1635850;86;21688;-83
2021/10/12 03:34:12;;;;;;;33.20;13.08;;;;;;;6.94;100.00;101020.65;1636311;86;21006;-83
2021/10/12 03:36:38;;;;;;;42.98;14.23;;;;;;;7.07;100.00;101041.09;1636383;86;20912;-83
2021/10/12 03:39:04;;;;;;;34.50;13.68;;;;;;;7.08;100.00;101040.56;1636246;86;20935;-83
2021/10/12 03:41:30;;;;;;;35.80;14.38;;;;;;;7.08;100.00;101037.89;1636189;86;21915;-83
2021/10/12 03:43:55;;;;;;;36.28;13.90;;;;;;;7.08;100.00;101036.55;1636090;86;20987;-83
2021/10/12 03:46:21;;;;;;;37.05;13.83;;;;;;;7.09;100.00;101035.49;1636197;86;20883;-83
2021/10/12 03:48:47;;;;;;;36.53;13.65;;;;;;;7.09;100.00;101039.02;1636182;86;20880;-83
2021/10/12 03:51:13;;;;;;;38.98;14.18;;;;;;;7.11;100.00;101032.08;1636292;86;21089;-83
2021/10/12 03:53:39;;;;;;;37.42;13.25;;;;;;;7.12;100.00;101028.34;1636177;86;21971;-83
2021/10/12 03:56:05;;;;;;;28.95;11.75;;;;;;;7.12;100.00;101031.02;1636006;86;20930;-83
2021/10/12 03:58:32;;;;;;;33.10;12.07;;;;;;;7.10;100.00;101027.23;1636039;86;21065;-83
2021/10/12 04:00:57;;;;;;;40.73;12.70;;;;;;;7.11;100.00;101024.03;1636241;86;21036;-83
2021/10/12 04:03:24;;;;;;;35.68;12.35;;;;;;;7.12;100.00;101021.64;1636263;86;21755;-83
2021/10/12 04:05:50;;;;;;;32.90;11.95;;;;;;;7.13;100.00;101018.75;1636067;86;21905;-83
2021/10/12 04:08:15;;;;;;;31.10;11.57;;;;;;;7.17;100.00;101021.78;1635989;87;20906;-83
2021/10/12 04:10:41;;;;;;;34.92;11.08;;;;;;;7.20;100.00;101021.33;1605498;87;20942;-83
2021/10/12 04:13:07;;;;;;;37.30;13.43;;;;;;;7.25;100.00;101028.98;1635630;86;20895;-83
2021/10/12 04:15:34;;;;;;;26.65;12.68;;;;;;;7.28;100.00;101027.72;1636266;86;21137;-83
2021/10/12 04:18:01;;;;;;;35.15;11.53;;;;;;;7.31;100.00;101027.27;1636003;86;21084;-83
2021/10/12 04:20:27;;;;;;;28.30;12.43;;;;;;;7.34;100.00;101036.19;1635999;86;21003;-83
2021/10/12 04:22:56;;;;;;;30.70;12.00;;;;;;;7.34;100.00;101035.38;1636117;86;21006;-83
2021/10/12 04:25:23;;;;;;;42.88;13.38;;;;;;;7.33;100.00;101033.23;1637331;86;21042;-84
2021/10/12 04:27:51;;;;;;;32.78;12.58;;;;;;;7.36;100.00;101031.96;1638504;87;21073;-83
2021/10/12 04:30:17;;;;;;;36.28;12.80;;;;;;;7.41;100.00;101030.23;1638245;87;20989;-83
2021/10/12 04:32:43;;;;;;;35.80;13.18;;;;;;;7.48;100.00;101031.47;1638414;87;20990;-84
2021/10/12 04:35:09;;;;;;;33.85;12.98;;;;;;;7.55;100.00;101032.71;1636526;87;21018;-83
2021/10/12 04:37:35;;;;;;;41.85;13.95;;;;;;;7.65;100.00;101035.14;1638612;87;20993;-83
2021/10/12 04:40:01;;;;;;;34.00;12.60;;;;;;;7.78;100.00;101034.11;1638401;86;21003;-83
2021/10/12 04:42:27;;;;;;;32.50;12.93;;;;;;;7.94;100.00;101033.95;1638423;87;21053;-83
2021/10/12 04:44:54;;;;;;;34.10;13.18;;;;;;;8.09;100.00;101031.66;1638559;87;21584;-83
2021/10/12 04:47:21;;;;;;;31.70;11.97;;;;;;;8.25;100.00;101040.87;1638067;86;21585;-83
2021/10/12 04:49:48;;;;;;;35.55;12.88;;;;;;;8.44;100.00;101042.94;1638437;87;21502;-83
2021/10/12 04:52:15;;;;;;;61.40;14.93;;;;;;;8.61;100.00;101039.83;1638351;86;21529;-83
2021/10/12 04:54:41;;;;;;;55.92;14.40;;;;;;;8.81;100.00;101043.48;1638239;87;21164;-83
2021/10/12 04:57:07;;;;;;;37.95;13.18;;;;;;;8.97;100.00;101045.98;1638220;87;21158;-83
2021/10/12 04:59:33;;;;;;;34.80;12.82;;;;;;;9.13;100.00;101043.59;1636087;87;20890;-83
2021/10/12 05:01:59;;;;;;;43.85;13.03;;;;;;;9.24;100.00;101045.42;1638170;87;20925;-88
2021/10/12 05:04:26;;;;;;;46.85;14.38;;;;;;;9.35;100.00;101035.12;1637994;87;21061;-90
2021/10/12 05:06:52;;;;;;;58.42;14.95;;;;;;;9.46;100.00;101035.61;1638614;87;21023;-86
2021/10/12 05:09:18;;;;;;;47.03;14.35;;;;;;;9.58;100.00;101035.55;1637696;87;21120;-86
2021/10/12 05:11:44;;;;;;;57.10;18.35;;;;;;;9.72;100.00;101029.34;1638210;87;21351;-85
2021/10/12 05:14:10;;;;;;;81.70;20.72;;;;;;;9.85;100.00;101030.34;1638304;87;20990;-86
2021/10/12 05:16:36;;;;;;;84.70;20.62;;;;;;;10.02;100.00;101027.67;1638251;86;21543;-86
2021/10/12 05:19:03;;;;;;;60.67;19.75;;;;;;;10.22;100.00;101026.63;1638551;87;21124;-84
2021/10/12 05:21:31;;;;;;;54.20;17.23;;;;;;;10.44;100.00;101030.77;1638053;87;21014;-85
2021/10/12 05:23:58;;;;;;;49.98;15.25;;;;;;;10.58;100.00;101026.36;1637960;87;21065;-85
2021/10/12 05:26:55;;;;;;;;;;;;;;;;;;;;;
2021/10/12 05:29:21;;;;;;;32.83;11.30;;;;;;;10.83;100.00;101017.80;1576267;89;21549;-82
2021/10/12 05:32:06;;;;;;;;;;;;;;;;;;;;;
2021/10/12 05:34:26;;;;;;;27.20;9.08;;;;;;;11.14;100.00;101021.66;1604771;88;21131;-82
2021/10/12 05:37:02;;;;;;;27.62;10.15;;;;;;;11.35;100.00;101016.78;1617625;87;21088;-82
2021/10/12 05:39:47;;;;;;;;;;;;;;;;;;;;;
2021/10/12 05:42:15;;;;;;;;;;;;;;;;;;;;;
2021/10/12 05:44:36;;;;;;;25.77;9.48;;;;;;;12.54;100.00;101011.22;1491480;95;21211;-82
2021/10/12 05:47:04;;;;;;;32.80;9.35;;;;;;;12.59;100.00;101010.42;1493465;95;21167;-82
2021/10/12 05:49:41;;;;;;;;;;;;;;;;;;;;;
2021/10/12 05:52:04;;;;;;;27.30;8.98;;;;;;;13.25;100.00;101012.05;1473018;97;21084;-81
2021/10/12 05:54:35;;;;;;;26.65;8.55;;;;;;;13.34;100.00;101013.16;1448979;99;21534;-81
2021/10/12 05:57:19;;;;;;;;;;;;;;;;;;;;;
2021/10/12 05:59:41;;;;;;;24.63;8.88;;;;;;;13.38;100.00;101014.27;1349477;104;21640;-84
2021/10/12 06:02:24;;;;;;;24.67;8.85;;;;;;;13.50;100.00;101014.53;1348300;105;21959;-84
2021/10/12 06:12:40;;;;;;;19.62;7.85;;;;;;;15.87;94.23;100992.01;1264275;111;21622;-85
2021/10/12 06:15:06;;;;;;;26.30;9.00;;;;;;;16.89;79.76;100994.20;1268354;111;21335;-85
2021/10/12 06:17:32;;;;;;;26.40;8.25;;;;;;;17.86;78.27;100985.96;1279171;111;21165;-87
2021/10/12 06:19:58;;;;;;;29.72;8.33;;;;;;;19.44;70.44;100986.05;1286079;110;21118;-84
2021/10/12 06:22:24;;;;;;;29.92;8.03;;;;;;;20.57;63.00;100974.95;1291240;110;21242;-85
2021/10/12 06:24:50;;;;;;;17.73;7.00;;;;;;;21.52;57.04;100979.73;1280504;110;21173;-84
2021/10/12 06:27:17;;;;;;;26.50;7.67;;;;;;;22.02;54.05;100972.86;1280237;110;21187;-84
2021/10/12 06:29:43;;;;;;;17.65;6.03;;;;;;;22.43;51.50;100969.49;1269713;110;21209;-86
2021/10/12 06:32:09;;;;;;;17.87;5.80;;;;;;;23.47;52.14;100977.05;1270065;110;21787;-87
2021/10/12 06:34:35;;;;;;;18.25;5.67;;;;;;;24.47;47.19;100972.25;1241920;113;21721;-88
2021/10/12 06:37:00;;;;;;;19.32;5.45;;;;;;;24.40;46.84;100973.93;1266680;110;21267;-88
2021/10/12 06:39:27;;;;;;;15.45;6.00;;;;;;;24.94;43.68;100973.66;1265041;112;21190;-83
2021/10/12 06:41:53;;;;;;;14.53;5.58;;;;;;;25.35;44.86;100960.70;1278297;110;21213;-86
2021/10/12 06:44:20;;;;;;;17.62;5.85;;;;;;;26.31;41.14;100971.33;1261502;109;21454;-85
2021/10/12 06:46:46;;;;;;;10.82;5.10;;;;;;;26.33;39.75;100971.78;1325829;104;21214;-88
2021/10/12 06:49:12;;;;;;;13.78;5.33;;;;;;;26.37;40.24;100969.89;1342800;106;22053;-88
2021/10/12 06:51:39;;;;;;;15.88;6.28;;;;;;;26.84;40.50;100966.27;1348347;104;20977;-91
2021/10/12 06:54:05;;;;;;;20.15;5.12;;;;;;;28.31;41.43;100968.52;1350746;104;21212;-88
2021/10/12 06:56:32;;;;;;;15.55;4.53;;;;;;;29.85;36.69;100969.16;1374986;100;21630;-89
2021/10/12 06:58:58;;;;;;;14.30;4.90;;;;;;;29.33;35.08;100964.84;1415946;100;21148;-83
2021/10/12 07:01:24;;;;;;;14.58;5.10;;;;;;;28.64;34.92;100964.29;1460812;96;21146;-88
2021/10/12 07:03:50;;;;;;;14.78;4.78;;;;;;;27.90;34.85;100964.66;1474039;93;21870;-89
2021/10/12 07:06:16;;;;;;;12.20;5.20;;;;;;;27.62;35.41;100960.98;1583720;89;21674;-87
2021/10/12 07:08:41;;;;;;;14.87;4.85;;;;;;;26.10;36.15;100960.55;1594625;90;21093;-86
2021/10/12 07:11:07;;;;;;;11.63;5.00;;;;;;;25.11;37.89;100964.32;1594285;90;20958;-86
2021/10/12 07:13:33;;;;;;;13.70;5.28;;;;;;;25.78;37.95;100953.59;1594134;88;22061;-87
2021/10/12 07:15:59;;;;;;;16.93;5.03;;;;;;;26.55;38.91;100940.73;1594613;90;20927;-87
2021/10/12 07:18:25;;;;;;;12.93;5.28;;;;;;;27.82;36.35;100946.52;1594417;90;20958;-88
2021/10/12 07:20:51;;;;;;;13.95;5.55;;;;;;;28.04;34.41;100945.52;1593636;89;22039;-87
2021/10/12 07:23:18;;;;;;;10.32;5.50;;;;;;;26.55;35.54;100937.17;1542540;91;21578;-87
2021/10/12 07:25:47;;;;;;;12.60;5.55;;;;;;;25.88;36.81;100938.48;1562161;90;21141;-88
2021/10/12 07:28:15;;;;;;;17.30;6.30;;;;;;;26.44;37.24;100942.41;1531055;92;21073;-87
2021/10/12 07:30:41;;;;;;;16.93;6.15;;;;;;;27.52;36.14;100933.09;1531323;92;21057;-87
2021/10/12 07:33:07;;;;;;;11.70;4.95;;;;;;;27.62;35.55;100931.11;1530966;92;21128;-88
2021/10/12 07:35:33;;;;;;;10.25;4.97;;;;;;;28.36;34.95;100932.77;1531265;92;22557;-88
2021/10/12 07:38:01;;;;;;;10.88;5.50;;;;;;;28.73;34.40;100935.69;1531319;92;21383;-87
2021/10/12 07:40:27;;;;;;;17.37;4.90;;;;;;;29.27;33.73;100926.10;1531017;93;21093;-88
2021/10/12 07:42:53;;;;;;;17.57;5.15;;;;;;;29.00;33.22;100929.49;1533457;92;21638;-87
2021/10/12 07:45:19;;;;;;;15.03;5.15;;;;;;;28.72;33.02;100925.78;1544955;92;21048;-87
2021/10/12 07:47:45;;;;;;;9.38;5.28;;;;;;;28.54;33.64;100918.59;1564666;89;21031;-87
2021/10/12 07:50:11;;;;;;;13.25;5.20;;;;;;;28.81;32.98;100928.27;1569196;90;21766;-87
2021/10/12 07:52:37;;;;;;;19.15;4.72;;;;;;;28.68;33.10;100922.16;1568864;90;20940;-87
2021/10/12 07:57:31;;;;;;;9.80;5.15;;;;;;;27.87;33.93;100933.55;1569025;90;21162;-88
2021/10/12 07:59:57;;;;;;;16.20;4.50;;;;;;;27.29;34.20;100927.50;1559275;89;21055;-87
2021/10/12 08:02:23;;;;;;;14.25;4.78;;;;;;;26.52;35.43;100922.69;1599496;88;21107;-88
2021/10/12 08:04:49;;;;;;;13.35;5.30;;;;;;;26.50;35.60;100932.71;1599560;88;20918;-86
2021/10/12 08:07:15;;;;;;;11.45;4.60;;;;;;;26.65;35.48;100925.54;1599533;88;21632;-87
2021/10/12 08:09:43;;;;;;;11.10;4.08;;;;;;;27.15;35.03;100931.60;1599689;89;21096;-85
2021/10/12 08:12:09;;;;;;;11.75;4.83;;;;;;;27.27;34.51;100923.73;1599691;88;20975;-86
2021/10/12 08:14:41;;;;;;;11.00;4.65;;;;;;;27.23;35.39;100920.66;1599401;88;20954;-86
2021/10/12 08:17:07;;;;;;;11.63;5.08;;;;;;;28.26;34.23;100910.62;1548967;91;21124;-87
2021/10/12 08:19:33;;;;;;;15.98;4.90;;;;;;;29.07;33.39;100904.65;1549334;91;21093;-86
2021/10/12 08:21:59;;;;;;;15.35;4.92;;;;;;;29.25;32.43;100899.89;1549037;91;21009;-86
2021/10/12 08:24:25;;;;;;;12.13;4.70;;;;;;;28.97;32.71;100901.94;1562667;87;21560;-88
2021/10/12 08:26:51;;;;;;;14.43;4.50;;;;;;;29.90;31.90;100884.06;1612740;87;21960;-89
2021/10/12 08:29:17;;;;;;;14.25;4.62;;;;;;;30.40;31.23;100889.20;1605311;87;20908;-88
2021/10/12 08:31:43;;;;;;;15.55;5.12;;;;;;;29.31;30.76;100888.66;1603552;87;21040;-88
2021/10/12 08:34:09;;;;;;;10.45;4.80;;;;;;;28.40;32.31;100880.92;1604472;87;21098;-89
2021/10/12 08:36:38;;;;;;;7.30;4.15;;;;;;;27.99;32.64;100887.05;1601238;87;21151;-84
2021/10/12 08:39:05;;;;;;;11.22;4.17;;;;;;;27.50;33.69;100887.78;1604174;87;21126;-87
2021/10/12 08:41:37;;;;;;;12.82;4.28;;;;;;;27.89;33.72;100879.38;1627489;86;21022;-85
2021/10/12 08:44:03;;;;;;;13.35;4.70;;;;;;;27.63;33.90;100877.32;1664081;84;21105;-86
2021/10/12 08:46:30;;;;;;;16.75;5.47;;;;;;;26.84;34.21;100866.70;1664566;84;21086;-85
2021/10/12 08:48:58;;;;;;;9.90;4.95;;;;;;;26.27;35.60;100867.05;1659965;84;21574;-83
2021/10/12 08:51:26;;;;;;;11.10;3.45;;;;;;;26.18;36.18;100859.53;1664638;86;21108;-85
2021/10/12 08:53:53;;;;;;;15.90;5.58;;;;;;;25.98;36.04;100857.28;1664077;84;21035;-88
2021/10/12 08:56:21;;;;;;;11.97;4.62;;;;;;;25.57;36.47;100846.18;1663880;84;21625;-86
2021/10/12 08:59:01;;;;;;;;;;;;;;;;;;;;;
2021/10/12 09:01:19;;;;;;;9.60;3.50;;;;;;;24.94;37.83;100848.20;1495768;95;21056;-83
2021/10/12 09:04:02;;;;;;;7.17;3.58;;;;;;;24.36;38.66;100846.30;1496150;95;21011;-83
2021/10/12 09:06:36;;;;;;;8.10;3.50;;;;;;;23.60;40.33;100837.56;1457718;97;21078;-83
2021/10/12 09:09:15;;;;;;;;;;;;;;;;;;;;;
2021/10/12 09:11:35;;;;;;;17.70;6.83;;;;;;;23.16;42.18;100833.69;1401799;102;21117;-81
2021/10/12 09:14:04;;;;;;;10.53;4.00;;;;;;;23.33;42.45;100822.50;1401747;102;21238;-81
2021/10/12 09:16:41;;;;;;;10.63;4.08;;;;;;;22.87;42.52;100826.55;1386053;102;21233;-83
2021/10/12 09:19:11;;;;;;;10.78;4.33;;;;;;;22.59;43.56;100823.58;1401273;101;21178;-83
2021/10/12 09:21:41;;;;;;;9.13;3.95;;;;;;;22.16;44.67;100819.72;1381783;102;21703;-83
2021/10/12 09:24:20;;;;;;;12.20;3.52;;;;;;;21.85;45.43;100811.24;1400199;102;21448;-82
2021/10/12 09:26:50;;;;;;;8.75;4.28;;;;;;;21.83;46.10;100809.42;1431154;99;21236;-81
2021/10/12 09:29:35;;;;;;;10.25;3.85;;;;;;;21.74;46.50;100801.23;1433985;99;21270;-83
2021/10/12 09:31:59;;;;;;;11.85;3.72;;;;;;;21.53;47.40;100796.22;1442808;98;21106;-82
2021/10/12 09:34:34;;;;;;;12.37;4.25;;;;;;;21.13;48.11;100789.64;1442843;99;21161;-83
2021/10/12 09:37:07;;;;;;;14.53;4.12;;;;;;;20.95;49.29;100779.85;1442762;99;21622;-82
2021/10/12 09:39:41;;;;;;;7.55;4.00;;;;;;;20.83;50.12;100780.52;1449799;98;21170;-82
2021/10/12 09:42:14;;;;;;;10.13;4.15;;;;;;;20.74;50.81;100770.14;1437602;98;21301;-82
2021/10/12 09:44:58;;;;;;;15.35;3.77;;;;;;;20.84;51.27;100767.84;1454863;98;21840;-82
2021/10/12 09:47:29;;;;;;;8.43;3.40;;;;;;;21.04;51.93;100762.83;1454790;98;21180;-82
2021/10/12 09:52:45;;;;;;;15.93;4.28;;;;;;;21.08;51.87;100750.06;1391708;103;21194;-82
2021/10/12 09:55:11;;;;;;;16.87;3.92;;;;;;;21.00;51.88;100753.09;1389279;103;21194;-82
2021/10/12 09:57:39;;;;;;;10.88;4.17;;;;;;;20.82;52.08;100747.38;1414858;101;20989;-81
2021/10/12 10:00:07;;;;;;;13.15;3.70;;;;;;;20.63;52.98;100740.33;1414747;99;21145;-82
2021/10/12 10:02:37;;;;;;;14.80;4.00;;;;;;;20.53;53.35;100742.58;1417630;100;21591;-82
2021/10/12 10:05:05;;;;;;;13.03;4.15;;;;;;;20.32;53.74;100742.39;1425967;100;21148;-82
2021/10/12 10:07:39;;;;;;;7.75;3.75;;;;;;;20.14;54.96;100727.33;1423918;99;21188;-82
2021/10/12 10:10:06;;;;;;;11.28;3.62;;;;;;;20.14;55.39;100721.86;1406977;100;21230;-83
2021/10/12 10:12:34;;;;;;;10.53;3.75;;;;;;;20.28;55.97;100724.45;1407754;100;21628;-82
2021/10/12 10:17:42;;;;;;;23.92;7.80;;;;;;;20.48;54.45;100703.84;1313557;107;21251;-83
2021/10/12 10:20:10;;;;;;;15.53;6.20;;;;;;;20.73;53.85;100717.27;1313736;107;21217;-82
2021/10/12 10:25:34;;;;;;;15.90;4.90;;;;;;;20.69;54.84;100716.89;1334915;106;21148;-83
2021/10/12 10:28:24;;;;;;;12.25;4.25;;;;;;;20.77;54.60;100714.70;1326940;106;21141;-82
2021/10/12 10:31:00;;;;;;;8.75;3.67;;;;;;;20.96;54.07;100706.10;1327118;106;21238;-82
2021/10/12 10:33:37;;;;;;;13.72;3.98;;;;;;;21.24;53.15;100705.92;1327003;106;21196;-83
2021/10/12 10:36:06;;;;;;;13.08;3.72;;;;;;;21.33;52.23;100694.92;1326974;106;21240;-83
2021/10/12 10:38:47;;;;;;;7.62;3.60;;;;;;;21.22;52.05;100701.91;1327051;107;21880;-83
2021/10/12 10:41:19;;;;;;;10.35;3.90;;;;;;;21.38;52.90;100702.97;1327033;105;21808;-83
2021/10/12 10:43:55;;;;;;;13.83;4.05;;;;;;;21.35;51.29;100695.95;1327342;106;21510;-83
2021/10/12 10:46:38;;;;;;;7.58;4.33;;;;;;;21.29;51.04;100692.59;1327018;106;22031;-83
2021/10/12 10:49:21;;;;;;;16.65;5.78;;;;;;;21.40;51.07;100693.06;1325558;104;21162;-82
2021/10/12 10:52:03;;;;;;;11.63;3.72;;;;;;;21.48;50.84;100689.47;1374217;103;21544;-85
2021/10/12 10:54:47;;;;;;;11.68;3.72;;;;;;;21.41;50.15;100680.95;1361323;103;21137;-82
2021/10/12 10:57:20;;;;;;;12.50;4.10;;;;;;;21.49;49.69;100684.22;1393436;103;21048;-82
2021/10/12 10:59:49;;;;;;;8.15;3.62;;;;;;;21.61;49.73;100682.93;1393651;103;21273;-79
2021/10/12 11:02:33;;;;;;;12.73;4.00;;;;;;;21.66;49.95;100680.58;1348486;106;21158;-80
2021/10/12 11:05:00;;;;;;;10.85;3.67;;;;;;;21.43;49.50;100678.11;1348523;106;21167;-82
2021/10/12 11:07:28;;;;;;;7.85;3.65;;;;;;;21.05;50.32;100679.47;1368700;104;21235;-82
2021/10/12 11:09:55;;;;;;;9.15;3.85;;;;;;;20.95;51.15;100679.84;1386940;102;21239;-85
2021/10/12 11:12:27;;;;;;;10.60;3.85;;;;;;;21.03;51.52;100669.39;1345026;104;21163;-83
2021/10/12 11:15:09;;;;;;;9.55;3.62;;;;;;;21.49;52.06;100664.45;1334945;107;21707;-82
2021/10/12 11:17:35;;;;;;;12.37;3.80;;;;;;;21.49;52.06;100664.45;1339301;105;21196;-81
2021/10/12 11:20:11;;;;;;;14.60;3.67;;;;;;;21.72;50.66;100660.84;1383510;98;21130;-86
2021/10/12 11:22:42;;;;;;;10.25;3.52;;;;;;;21.91;49.56;100649.42;1451697;96;21209;-83
2021/10/12 11:25:08;;;;;;;9.48;3.45;;;;;;;22.04;49.37;100652.22;1411084;101;21272;-83
2021/10/12 11:27:46;;;;;;;10.45;3.25;;;;;;;22.11;48.25;100651.89;1411876;100;21167;-83
2021/10/12 11:30:15;;;;;;;14.98;3.90;;;;;;;22.13;48.30;100645.50;1402474;100;21226;-83
2021/10/12 11:32:43;;;;;;;15.25;3.72;;;;;;;22.22;48.67;100656.44;1441285;98;21156;-84
2021/10/12 11:35:11;;;;;;;13.70;3.90;;;;;;;22.17;47.80;100648.41;1416361;99;21148;-83
2021/10/12 11:37:54;;;;;;;10.25;4.67;;;;;;;22.14;48.23;100647.67;1444873;96;21979;-83
2021/10/12 11:40:24;;;;;;;9.10;3.60;;;;;;;22.20;48.81;100645.78;1460578;98;21164;-82
2021/10/12 11:42:52;;;;;;;9.73;3.37;;;;;;;22.07;47.74;100648.80;1461089;96;21184;-86
2021/10/12 11:45:18;;;;;;;16.95;4.20;;;;;;;22.01;47.39;100646.83;1460892;98;21125;-85